メインページ
METAR-TAF:

METAR-TAF

空港 :

Dawson Creek, ブリティッシュコロンビア州, カナダ

緯度: 55-45N, 経度: 120-11W, 海抜: 655m

現時点の気象観測

当レポートは40分前の00:00(UTC)に作成
東/南東の風 5kt
気温 21°C
湿度 60%
気圧 1012 hPa
視程: 14.5km
晴天

METAR: CYDQ 210000Z AUTO 12005KT 9SM CLR 21/13 A2988 RMK SLP128 DENSITY ALT 3300FT

時間: 17:40 (00:40 UTC)

予報

当レポートは6時間2分前の18:38(UTC)に作成
予報は20日の 19時(UTC)から 21日の 05時(UTC)まで有効
南/南東の風 6kt
視程: 10km
高度3000ftの雲は散在している
高度10000ftの千切れ雲あり
20日の 2200時(UTC)から
東/南東の風 10kt
視程: 10km
高度4000ftの雲は散在している
高度15000ftの千切れ雲あり

TAF: CYDQ 201838Z 2019/2105 15006KT P6SM SCT030 BKN100 FM202200 12010KT P6SM SCT040 BKN150 RMK FCST BASED ON AUTO OBS. NXT FCST BY 210100Z

4,000以上の空港の気象観測と天気予報(METAR報とTAF報)

利用可能な観測所は地図上に黄色い丸と赤い丸で示す。

丸の上にカーソルを重ねると観測所名を参照できる。

次にクリックすると気象観測と天気予報を参照できる。

マップの切り替え:黒色「×」印の緑ボタンをクリックして拡大、「-」印の緑ボタンをクリックして縮小、緑色の三角印をクリックして隣りの地図に切り替え


METAR-TAF: